createdAt,value
2018-05-31T10:12:52.614Z,9.00
2018-05-31T10:13:55.985Z,10.60
2018-05-31T10:14:58.504Z,11.10
2018-05-31T10:16:01.783Z,9.60
2018-05-31T10:17:05.138Z,9.70
2018-05-31T10:18:07.623Z,10.40
2018-05-31T10:19:10.218Z,9.43
2018-05-31T10:20:13.468Z,8.70
2018-05-31T10:21:15.976Z,9.47
2018-05-31T10:22:19.254Z,10.97
2018-05-31T10:23:21.742Z,10.70
2018-05-31T10:24:25.029Z,11.87
2018-05-31T10:25:28.301Z,12.20
2018-05-31T10:26:30.785Z,11.10
2018-05-31T10:27:34.067Z,14.20
2018-05-31T10:28:37.360Z,13.63
2018-05-31T10:29:40.652Z,12.60
2018-05-31T10:30:43.944Z,11.77
2018-05-31T10:31:47.239Z,10.40
2018-05-31T10:32:49.786Z,9.70
2018-05-31T10:33:52.383Z,10.03
2018-05-31T10:34:54.870Z,8.50
2018-05-31T10:35:57.403Z,7.50
2018-05-31T10:37:00.676Z,8.63
2018-05-31T10:38:03.188Z,7.83
2018-05-31T10:39:06.491Z,8.10
2018-05-31T10:40:09.010Z,7.97
2018-05-31T10:41:11.555Z,8.90
2018-05-31T10:42:14.035Z,7.53
2018-05-31T10:43:16.537Z,7.93
2018-05-31T10:44:19.826Z,8.20
2018-05-31T10:45:23.114Z,8.40
2018-05-31T10:46:26.440Z,8.77
2018-05-31T10:47:29.681Z,7.30
2018-05-31T10:48:32.934Z,8.00
2018-05-31T10:49:35.427Z,7.37
2018-05-31T10:50:37.917Z,9.07
2018-05-31T10:51:40.571Z,7.30
2018-05-31T10:52:43.038Z,7.70
2018-05-31T10:53:46.326Z,7.53
2018-05-31T10:54:48.860Z,8.87
2018-05-31T10:55:52.129Z,7.67
2018-05-31T10:56:59.915Z,7.67
2018-05-31T10:58:08.791Z,8.40
2018-05-31T10:59:11.426Z,9.50
2018-05-31T11:00:13.984Z,10.33
2018-05-31T11:01:16.489Z,9.97
2018-05-31T11:02:19.807Z,10.30
2018-05-31T11:03:27.540Z,9.23
2018-05-31T11:04:30.057Z,9.07
2018-05-31T11:05:32.560Z,9.10
2018-05-31T11:06:35.057Z,9.07
2018-05-31T11:07:37.543Z,8.23
2018-05-31T11:08:40.832Z,7.53
2018-05-31T11:09:43.316Z,7.60
2018-05-31T11:10:45.818Z,8.13
2018-05-31T11:11:48.315Z,6.87
2018-05-31T11:12:51.369Z,7.27
2018-05-31T11:13:53.864Z,8.80
2018-05-31T11:14:56.399Z,8.00
2018-05-31T11:15:58.841Z,7.33
2018-05-31T11:17:02.199Z,7.27
2018-05-31T11:18:04.695Z,7.60
2018-05-31T11:32:07.260Z,11.40
2018-05-31T11:33:09.775Z,11.27
2018-05-31T11:34:13.343Z,10.43
2018-05-31T11:35:15.813Z,11.30
2018-05-31T11:36:18.321Z,10.60
2018-05-31T11:37:20.843Z,10.70
2018-05-31T11:38:23.317Z,11.57
2018-05-31T11:39:25.895Z,11.97
2018-05-31T11:40:29.186Z,11.10
2018-05-31T11:41:31.731Z,11.33
2018-05-31T11:42:34.228Z,10.67
2018-05-31T11:43:36.726Z,10.70
2018-05-31T11:44:40.331Z,10.73
2018-05-31T11:45:44.862Z,9.90
2018-05-31T11:46:48.139Z,11.20
2018-05-31T11:47:50.686Z,11.40
2018-05-31T11:48:53.209Z,11.70
2018-05-31T11:49:56.511Z,10.60
2018-05-31T11:50:58.993Z,12.30
2018-05-31T11:52:01.487Z,12.03
2018-05-31T11:53:04.542Z,11.40
2018-05-31T11:54:07.047Z,12.50
2018-05-31T11:55:09.556Z,11.50
2018-05-31T11:56:13.672Z,11.27
2018-05-31T11:57:16.943Z,12.63
2018-05-31T11:58:20.233Z,12.17
2018-05-31T11:59:22.765Z,11.87
2018-05-31T12:00:25.367Z,9.63
2018-05-31T12:01:28.037Z,10.20
2018-05-31T12:02:30.793Z,10.83
2018-05-31T12:03:33.360Z,9.70
2018-05-31T12:04:35.903Z,10.50
2018-05-31T12:05:38.415Z,11.23
2018-05-31T12:06:40.909Z,10.30
2018-05-31T12:07:43.393Z,8.67
2018-05-31T12:08:47.059Z,9.37
2018-05-31T12:09:49.599Z,9.80
2018-05-31T12:10:52.147Z,9.33
2018-05-31T12:11:56.169Z,9.93
2018-05-31T12:12:58.665Z,9.93
2018-05-31T12:14:01.151Z,11.50
2018-05-31T12:15:03.648Z,9.00
2018-05-31T12:16:06.912Z,10.00
2018-05-31T12:17:09.449Z,9.30
2018-05-31T12:18:11.953Z,9.73
2018-05-31T12:19:14.466Z,8.93
2018-05-31T12:20:17.030Z,9.20
2018-05-31T12:21:20.274Z,9.90
2018-05-31T12:22:22.813Z,9.03
2018-05-31T12:23:25.298Z,9.17
2018-05-31T12:24:27.805Z,10.33
2018-05-31T12:25:30.378Z,9.40
2018-05-31T12:26:35.530Z,9.53
2018-05-31T12:27:38.047Z,9.00
2018-05-31T12:28:40.560Z,9.87
2018-05-31T12:29:44.821Z,9.93
2018-05-31T12:30:47.323Z,10.27
2018-05-31T12:31:49.813Z,9.30
2018-05-31T12:32:52.871Z,9.43
2018-05-31T12:33:55.518Z,9.63
2018-05-31T12:34:58.011Z,8.73
2018-05-31T12:36:01.089Z,7.80
2018-05-31T12:37:04.603Z,8.97
2018-05-31T12:38:07.645Z,8.10
2018-05-31T12:39:10.244Z,8.13
2018-05-31T12:40:12.752Z,7.53
2018-05-31T12:41:16.718Z,7.23
2018-05-31T12:42:25.352Z,8.33
2018-05-31T12:43:28.696Z,7.73
2018-05-31T12:44:34.492Z,8.53
2018-05-31T12:45:37.814Z,9.07
2018-05-31T12:46:41.093Z,8.10
2018-05-31T12:47:44.334Z,8.53
2018-05-31T12:48:46.821Z,8.57
2018-05-31T12:49:49.327Z,10.07
2018-05-31T12:50:52.614Z,9.03
2018-05-31T12:51:55.883Z,7.80
2018-05-31T12:52:58.445Z,8.53
2018-05-31T12:54:00.946Z,9.20
2018-05-31T12:55:04.246Z,8.43
2018-05-31T12:56:06.739Z,8.73
2018-05-31T12:57:09.303Z,8.13
2018-05-31T12:58:11.854Z,8.50
2018-05-31T12:59:15.119Z,8.90
2018-05-31T13:00:17.614Z,9.40
2018-05-31T13:01:20.896Z,8.20
2018-05-31T13:02:24.181Z,9.07
2018-05-31T13:03:26.701Z,8.83
2018-05-31T13:04:30.296Z,9.50
2018-05-31T13:05:35.629Z,8.30
2018-05-31T13:06:38.596Z,10.27
2018-05-31T13:07:41.114Z,7.70
2018-05-31T13:08:43.591Z,8.80
2018-05-31T13:09:46.112Z,10.40
2018-05-31T13:10:48.613Z,10.83
2018-05-31T13:11:51.101Z,8.00
2018-05-31T13:12:53.605Z,7.87
2018-05-31T13:13:56.892Z,8.10
2018-05-31T13:15:00.269Z,7.50
2018-05-31T13:16:03.552Z,6.77
2018-05-31T13:17:06.057Z,7.60
2018-05-31T13:18:09.457Z,7.37
2018-05-31T13:19:12.148Z,7.30
2018-05-31T13:20:14.639Z,6.93
2018-05-31T13:21:17.788Z,6.00
2018-05-31T13:22:20.317Z,6.90
2018-05-31T13:23:22.828Z,7.20
2018-05-31T13:24:25.331Z,6.73
2018-05-31T13:25:27.823Z,7.30
2018-05-31T13:26:30.362Z,7.00
2018-05-31T13:27:32.855Z,6.80
2018-05-31T13:28:35.388Z,6.90
2018-05-31T13:29:37.969Z,7.40
2018-05-31T13:30:40.452Z,7.60
2018-05-31T13:31:43.819Z,7.00
2018-05-31T13:32:46.339Z,7.07
2018-05-31T13:33:48.842Z,7.50
2018-05-31T13:34:52.097Z,7.00
2018-05-31T13:35:54.604Z,7.27
2018-05-31T13:36:57.101Z,7.50
2018-05-31T13:37:59.648Z,7.10
2018-05-31T13:39:02.954Z,7.57
2018-05-31T13:40:05.485Z,6.47
2018-05-31T13:41:07.964Z,7.87
2018-05-31T13:42:11.217Z,7.57
2018-05-31T13:43:13.759Z,7.60
2018-05-31T13:44:16.334Z,6.63
2018-05-31T13:45:19.025Z,6.30
2018-05-31T13:46:22.258Z,6.93
2018-05-31T13:47:24.723Z,7.00
2018-05-31T13:48:27.243Z,7.00
2018-05-31T13:49:29.781Z,7.50
2018-05-31T13:50:33.040Z,7.10
2018-05-31T13:51:35.527Z,6.90
2018-05-31T13:52:38.844Z,6.97
2018-05-31T13:53:41.336Z,6.63
2018-05-31T13:54:43.846Z,7.10
2018-05-31T13:55:46.355Z,7.53
2018-05-31T13:56:48.851Z,7.17
2018-05-31T13:57:51.345Z,7.00
2018-05-31T13:58:53.817Z,7.00
2018-05-31T13:59:56.388Z,7.70
2018-05-31T14:00:58.879Z,6.90
2018-05-31T14:02:01.447Z,7.27
2018-05-31T14:03:03.971Z,7.77
2018-05-31T14:04:06.464Z,7.10
2018-05-31T14:05:08.967Z,7.83
2018-05-31T14:06:12.279Z,7.10
2018-05-31T14:07:14.878Z,7.13
2018-05-31T14:08:17.369Z,7.40
2018-05-31T14:09:19.861Z,8.17
2018-05-31T14:10:22.441Z,7.43
2018-05-31T14:11:27.917Z,7.40
2018-05-31T14:12:30.447Z,7.67
2018-05-31T14:13:32.967Z,8.03
2018-05-31T14:14:35.469Z,8.33
2018-05-31T14:15:37.963Z,7.70
2018-05-31T14:16:41.388Z,7.73
2018-05-31T14:17:44.132Z,7.73
2018-05-31T14:18:46.803Z,8.30
2018-05-31T14:19:49.835Z,8.30
2018-05-31T14:20:53.207Z,8.00
2018-05-31T14:21:55.746Z,8.10
2018-05-31T14:22:58.259Z,8.50
2018-05-31T14:24:00.781Z,7.83
2018-05-31T14:25:03.258Z,8.17
2018-05-31T14:26:05.751Z,8.40
2018-05-31T14:27:09.025Z,8.70
2018-05-31T14:28:11.543Z,7.60
2018-05-31T14:29:14.032Z,8.40
2018-05-31T14:30:16.555Z,8.53
2018-05-31T14:31:19.892Z,8.30
2018-05-31T14:32:22.407Z,9.10
2018-05-31T14:33:25.666Z,7.97
2018-05-31T14:34:28.145Z,8.70
2018-05-31T14:35:30.657Z,7.57
2018-05-31T14:36:33.183Z,7.73
2018-05-31T14:37:35.714Z,8.97
2018-05-31T14:38:38.208Z,7.20
2018-05-31T14:39:40.715Z,8.40
2018-05-31T14:40:43.971Z,7.97
2018-05-31T14:41:46.460Z,8.50
2018-05-31T14:42:48.986Z,8.23
2018-05-31T14:43:52.460Z,7.47
2018-05-31T14:44:55.753Z,7.20
2018-05-31T14:45:58.274Z,7.80
2018-05-31T14:47:00.752Z,7.87
2018-05-31T14:48:03.367Z,8.13
2018-05-31T14:49:05.911Z,7.40
2018-05-31T14:50:08.492Z,12.57
2018-05-31T14:51:11.848Z,13.67
2018-05-31T14:52:15.280Z,14.70
2018-05-31T14:53:19.536Z,14.27
2018-05-31T14:54:22.050Z,14.97
2018-05-31T14:55:24.548Z,14.50
2018-05-31T14:56:27.062Z,14.10
2018-05-31T14:57:29.545Z,18.73
2018-05-31T14:58:32.064Z,6.90
2018-05-31T14:59:34.665Z,11.40
2018-05-31T15:00:37.157Z,6.10
2018-05-31T15:01:39.667Z,3.50
2018-05-31T15:12:28.082Z,12.95
2018-05-31T15:13:31.214Z,15.02
2018-05-31T15:14:33.733Z,16.62
2018-05-31T15:15:36.244Z,23.67
2018-05-31T15:16:39.543Z,28.85
2018-05-31T15:17:42.782Z,32.70
2018-05-31T15:18:45.323Z,31.30
2018-05-31T15:19:47.840Z,31.25
2018-05-31T15:20:50.347Z,33.55
2018-05-31T15:21:52.838Z,32.80
2018-05-31T15:22:55.353Z,34.63
2018-05-31T15:23:57.851Z,35.28
2018-05-31T15:25:01.476Z,35.25
2018-05-31T15:26:03.996Z,30.98
2018-05-31T15:27:06.520Z,28.48
2018-05-31T15:28:09.058Z,27.20
2018-05-31T15:29:12.339Z,28.27
2018-05-31T15:30:15.669Z,30.00
2018-05-31T15:31:18.191Z,30.15
2018-05-31T15:32:20.700Z,30.95
2018-05-31T15:33:23.198Z,30.42
2018-05-31T15:34:25.702Z,29.17
2018-05-31T15:35:28.995Z,27.30
2018-05-31T15:36:32.309Z,28.67
2018-05-31T15:37:34.832Z,28.12
2018-05-31T15:38:37.435Z,28.75
2018-05-31T15:39:40.706Z,28.57
2018-05-31T15:40:43.470Z,27.50
2018-05-31T15:41:46.014Z,33.37
2018-05-31T15:42:48.506Z,28.43
2018-05-31T15:43:50.988Z,26.90
2018-05-31T15:44:53.498Z,26.33
2018-05-31T15:45:56.785Z,23.33
2018-05-31T15:46:59.303Z,26.00
2018-05-31T15:48:01.801Z,25.33
2018-05-31T15:49:04.313Z,24.30
2018-05-31T15:50:06.809Z,23.00
2018-05-31T15:51:09.347Z,20.43
2018-05-31T15:52:12.640Z,17.40
2018-05-31T15:53:15.159Z,16.60
2018-05-31T15:54:17.681Z,14.03
2018-05-31T15:55:20.544Z,15.90
2018-05-31T15:56:24.545Z,14.80
2018-05-31T15:57:27.081Z,14.82
2018-05-31T15:58:29.576Z,15.45
2018-05-31T15:59:32.110Z,14.90
2018-05-31T16:00:34.605Z,14.43
2018-05-31T16:01:37.185Z,15.35
2018-05-31T16:02:40.728Z,14.15
2018-05-31T16:03:43.279Z,14.05
2018-05-31T16:04:46.567Z,15.13
2018-05-31T16:05:49.857Z,15.20
2018-05-31T16:06:52.402Z,15.80
2018-05-31T16:07:54.927Z,13.95
2018-05-31T16:08:57.454Z,14.37
2018-05-31T16:09:59.986Z,14.87
2018-05-31T16:11:02.487Z,14.10
2018-05-31T16:12:05.062Z,15.70
2018-05-31T16:13:08.563Z,15.20
2018-05-31T16:14:11.090Z,14.50
2018-05-31T16:15:13.633Z,14.27
2018-05-31T16:16:16.134Z,14.57
2018-05-31T16:17:18.661Z,15.13
2018-05-31T16:18:21.207Z,13.97
2018-05-31T16:19:23.695Z,14.10
2018-05-31T16:20:27.000Z,14.87
2018-05-31T16:21:30.298Z,14.00
2018-05-31T16:22:33.607Z,14.90
2018-05-31T16:23:36.140Z,13.93
2018-05-31T16:24:39.472Z,12.57
2018-05-31T16:25:41.976Z,13.53
2018-05-31T16:26:44.508Z,12.97
2018-05-31T16:27:47.003Z,12.27
2018-05-31T16:28:49.539Z,12.53
2018-05-31T16:29:52.052Z,12.47
2018-05-31T16:30:54.583Z,11.50
2018-05-31T16:31:57.096Z,11.70
2018-05-31T16:32:59.608Z,12.57
2018-05-31T16:34:02.137Z,11.53
2018-05-31T16:35:04.689Z,10.97
2018-05-31T16:36:07.193Z,10.10
2018-05-31T16:37:09.708Z,10.77
2018-05-31T16:38:12.253Z,18.70
2018-05-31T16:39:15.086Z,10.90
2018-05-31T16:40:18.121Z,10.27
2018-05-31T16:41:21.372Z,11.30
2018-05-31T16:42:23.918Z,10.20
2018-05-31T16:43:26.472Z,9.00
2018-05-31T16:44:28.999Z,17.23
2018-05-31T16:45:31.497Z,12.40
2018-05-31T16:46:34.782Z,10.60
2018-05-31T16:47:38.038Z,9.60
2018-05-31T16:48:41.315Z,17.40
2018-05-31T16:49:43.842Z,16.70
2018-05-31T16:50:46.369Z,13.07
2018-05-31T16:51:48.890Z,11.43
2018-05-31T16:52:51.365Z,9.97
2018-05-31T16:53:53.897Z,9.13
2018-05-31T16:54:56.428Z,8.77
2018-05-31T16:55:58.949Z,9.03
2018-05-31T16:57:02.226Z,11.87
2018-05-31T16:58:04.732Z,16.17
2018-05-31T16:59:07.232Z,9.30
2018-05-31T17:00:11.243Z,8.43
2018-05-31T17:01:13.773Z,8.90
2018-05-31T17:02:17.075Z,8.93
2018-05-31T17:03:20.341Z,8.63
2018-05-31T17:04:22.839Z,9.67
2018-05-31T17:05:26.559Z,14.00
2018-05-31T17:06:29.071Z,15.17
2018-05-31T17:07:31.832Z,8.57
2018-05-31T17:08:34.347Z,8.17
2018-05-31T17:09:36.843Z,8.73
2018-05-31T17:11:21.768Z,11.10
2018-05-31T17:12:40.343Z,11.93
2018-05-31T17:13:42.892Z,7.97
2018-05-31T17:14:46.200Z,9.13
2018-05-31T17:15:48.722Z,10.20
2018-05-31T17:16:51.265Z,8.83
2018-05-31T17:17:53.794Z,8.70
2018-05-31T17:18:57.177Z,7.90
2018-05-31T17:20:00.467Z,8.77
2018-05-31T17:21:03.738Z,8.90
2018-05-31T17:22:06.248Z,8.53
2018-05-31T17:23:08.766Z,8.50
2018-05-31T17:24:11.276Z,8.70
2018-05-31T17:25:14.539Z,8.60
2018-05-31T17:26:17.061Z,8.40
2018-05-31T17:27:19.582Z,7.87
2018-05-31T17:28:22.820Z,9.33
2018-05-31T17:29:25.366Z,8.50
2018-05-31T17:30:27.887Z,9.43
2018-05-31T17:31:30.509Z,8.80
2018-05-31T17:32:33.832Z,9.40
2018-05-31T17:33:36.377Z,11.10
2018-05-31T17:34:38.904Z,10.13
2018-05-31T17:35:41.418Z,10.68
2018-05-31T17:36:44.716Z,10.50
2018-05-31T17:37:47.246Z,11.15
2018-05-31T17:38:49.778Z,9.02
2018-05-31T17:39:52.378Z,9.88
2018-05-31T17:40:54.892Z,11.07
2018-05-31T17:41:57.548Z,9.80
2018-05-31T17:43:00.212Z,9.57
2018-05-31T17:44:02.670Z,10.32
2018-05-31T17:45:05.195Z,9.88
2018-05-31T17:46:07.735Z,11.30
2018-05-31T17:47:10.357Z,11.98
2018-05-31T17:48:13.643Z,11.38
2018-05-31T17:49:17.037Z,12.90
2018-05-31T17:50:20.425Z,11.02
2018-05-31T17:51:23.700Z,11.10
2018-05-31T17:52:27.408Z,12.05
2018-05-31T17:53:29.941Z,11.65
2018-05-31T17:54:32.457Z,11.85
2018-05-31T17:55:35.183Z,11.90
2018-05-31T17:56:37.692Z,13.05
2018-05-31T17:57:40.217Z,12.95
2018-05-31T17:58:42.779Z,12.75
2018-05-31T17:59:45.352Z,13.35
2018-05-31T18:00:47.894Z,11.25
2018-05-31T18:01:50.439Z,11.93
2018-05-31T18:02:52.959Z,12.10
2018-05-31T18:03:55.465Z,11.85
2018-05-31T18:04:57.969Z,13.05
2018-05-31T18:06:00.484Z,12.90
2018-05-31T18:07:02.990Z,12.43
2018-05-31T18:08:06.347Z,12.48
2018-05-31T18:09:08.861Z,12.77
2018-05-31T18:10:12.148Z,13.00
2018-05-31T18:11:14.713Z,13.15
2018-05-31T18:12:18.082Z,13.68
2018-05-31T18:13:23.085Z,12.80
2018-05-31T18:14:26.434Z,15.38
2018-05-31T18:15:28.902Z,14.48
2018-05-31T18:16:32.180Z,13.82
2018-05-31T18:17:35.542Z,14.05
2018-05-31T18:18:38.052Z,14.40
2018-05-31T18:19:41.364Z,12.77
2018-05-31T18:20:43.950Z,14.30
2018-05-31T18:21:46.463Z,15.48
2018-05-31T18:22:48.977Z,14.85
2018-05-31T18:23:51.547Z,15.85
2018-05-31T18:24:54.071Z,15.23
2018-05-31T18:25:56.574Z,15.25
2018-05-31T18:26:59.086Z,15.15
2018-05-31T18:28:01.628Z,15.75
2018-05-31T18:29:04.131Z,15.02
2018-05-31T18:30:06.646Z,14.55
2018-05-31T18:31:10.044Z,15.05
2018-05-31T18:32:13.345Z,15.45
2018-05-31T18:33:15.841Z,14.57
2018-05-31T18:34:18.357Z,15.05
2018-05-31T18:35:21.834Z,13.55
2018-05-31T18:36:24.355Z,15.52
2018-05-31T18:37:26.883Z,16.17
2018-05-31T18:38:29.454Z,15.20
2018-05-31T18:39:31.977Z,15.25
2018-05-31T18:40:34.507Z,15.95
2018-05-31T18:41:37.028Z,14.90
2018-05-31T18:42:39.546Z,14.57
2018-05-31T18:43:42.086Z,14.63
2018-05-31T18:44:44.600Z,14.63
2018-05-31T18:45:47.941Z,14.80
2018-05-31T18:46:50.474Z,15.73
2018-05-31T18:47:53.752Z,16.30
2018-05-31T18:48:56.259Z,15.45
2018-05-31T18:49:58.799Z,16.83
2018-05-31T18:51:02.092Z,16.80
2018-05-31T18:52:05.373Z,16.98
2018-05-31T18:53:08.704Z,16.35
2018-05-31T18:54:11.256Z,18.02
2018-05-31T18:55:13.790Z,19.00
2018-05-31T18:56:16.310Z,21.52
2018-05-31T18:57:18.906Z,18.52
2018-05-31T18:58:21.423Z,19.62
2018-05-31T18:59:24.114Z,19.70
2018-05-31T19:00:26.623Z,20.65
2018-05-31T19:01:29.177Z,18.60
2018-05-31T19:02:31.690Z,18.50
2018-05-31T19:03:35.097Z,17.42
2018-05-31T19:04:38.403Z,17.70
2018-05-31T19:05:41.682Z,17.65
2018-05-31T19:06:44.243Z,18.60
2018-05-31T19:07:46.775Z,17.05
2018-05-31T19:08:49.304Z,16.10
2018-05-31T19:09:53.575Z,16.58
2018-05-31T19:10:56.111Z,16.90
2018-05-31T19:11:58.628Z,17.27
2018-05-31T19:13:07.641Z,18.33
2018-05-31T19:14:10.284Z,16.85
2018-05-31T19:15:21.631Z,18.12
2018-05-31T19:16:16.945Z,20.35
2018-05-31T19:17:19.494Z,21.05
2018-05-31T19:18:29.208Z,20.17
2018-05-31T19:19:37.588Z,19.80
2018-05-31T19:20:40.101Z,18.15
2018-05-31T19:21:42.643Z,20.83
2018-05-31T19:22:45.167Z,18.40
2018-05-31T19:23:47.758Z,19.15
2018-05-31T19:24:55.951Z,17.90
2018-05-31T19:26:00.532Z,18.55
2018-05-31T19:27:03.074Z,19.50
2018-05-31T19:28:05.653Z,17.52
2018-05-31T19:29:08.258Z,17.52
2018-05-31T19:30:16.258Z,18.58
2018-05-31T19:31:18.825Z,19.83
2018-05-31T19:32:21.898Z,17.42
2018-05-31T19:33:24.443Z,17.27
2018-05-31T19:34:27.802Z,18.42
2018-05-31T19:35:35.945Z,18.98
2018-05-31T19:36:45.411Z,18.98
2018-05-31T19:37:47.934Z,18.90
2018-05-31T19:38:50.490Z,19.35
2018-05-31T19:39:53.824Z,19.52
2018-05-31T19:40:56.360Z,18.90
2018-05-31T19:41:58.965Z,20.80
2018-05-31T19:43:07.211Z,19.80
2018-05-31T19:45:44.331Z,15.20
2018-05-31T19:46:46.837Z,16.45
2018-05-31T19:47:50.917Z,12.68
2018-05-31T19:48:53.469Z,13.62
2018-05-31T19:49:56.044Z,11.63
2018-05-31T19:50:58.564Z,12.05
2018-05-31T19:52:07.516Z,11.52
2018-05-31T19:53:15.801Z,12.00
2018-05-31T19:54:18.349Z,11.00
2018-05-31T19:55:20.883Z,12.05
2018-05-31T19:56:24.299Z,11.35
2018-05-31T19:57:26.853Z,10.85
2018-05-31T19:58:35.009Z,11.63
2018-05-31T19:59:43.894Z,10.70
2018-05-31T20:00:53.875Z,11.32
2018-05-31T20:02:06.163Z,10.00
2018-05-31T20:03:17.691Z,10.90
2018-05-31T20:04:23.295Z,11.73
2018-05-31T20:05:28.018Z,11.05
2018-05-31T20:06:35.219Z,13.30
2018-05-31T20:07:49.805Z,10.27
2018-05-31T20:08:52.870Z,12.82
2018-05-31T20:09:55.516Z,9.95
2018-05-31T20:11:02.936Z,10.98
2018-05-31T20:12:11.508Z,10.07
2018-05-31T20:13:14.310Z,10.95
2018-05-31T20:14:23.060Z,10.85
2018-05-31T20:15:29.023Z,10.18
2018-05-31T20:16:31.719Z,11.93
2018-05-31T20:17:36.051Z,11.40
2018-05-31T20:18:40.819Z,10.57
2018-05-31T20:19:45.697Z,10.25
2018-05-31T20:21:05.759Z,9.73
2018-05-31T20:22:11.164Z,11.00
2018-05-31T20:23:14.137Z,10.77
2018-05-31T20:24:16.752Z,10.65
2018-05-31T20:25:23.988Z,10.52
2018-05-31T20:26:29.311Z,10.37
2018-05-31T20:27:41.054Z,12.00
2018-05-31T20:28:47.367Z,11.00
2018-05-31T20:29:56.987Z,10.80
2018-05-31T20:30:59.987Z,10.90
2018-05-31T20:32:19.337Z,10.17
2018-05-31T20:33:24.354Z,11.05
2018-05-31T20:34:27.617Z,9.88
2018-05-31T20:35:31.431Z,10.40
2018-05-31T20:36:35.928Z,11.88
2018-05-31T20:37:41.843Z,10.02
2018-05-31T20:38:46.595Z,10.60
2018-05-31T20:39:53.762Z,10.17
2018-05-31T20:40:56.574Z,9.70
2018-05-31T20:42:00.264Z,10.73
2018-05-31T20:43:07.867Z,11.18
2018-05-31T20:44:11.466Z,10.83
2018-05-31T20:45:15.833Z,11.27
2018-05-31T20:46:20.034Z,10.70
2018-05-31T20:47:23.838Z,10.00
2018-05-31T20:48:26.518Z,10.50
2018-05-31T20:49:29.856Z,10.80
2018-05-31T20:50:34.650Z,9.27
2018-05-31T20:51:38.028Z,10.20
2018-05-31T20:52:43.812Z,11.60
2018-05-31T20:53:58.576Z,10.70
2018-05-31T20:55:10.911Z,10.57
2018-05-31T20:56:14.876Z,10.65
2018-05-31T20:57:18.378Z,11.37
2018-05-31T20:58:21.872Z,11.63
2018-05-31T20:59:24.982Z,11.10
2018-05-31T21:00:27.770Z,14.70
2018-05-31T21:01:31.452Z,12.23
2018-05-31T21:02:34.129Z,11.13
2018-05-31T21:03:39.337Z,12.18
2018-05-31T21:04:42.735Z,13.93
2018-05-31T21:05:46.077Z,15.00
2018-05-31T21:06:48.734Z,17.87
2018-05-31T21:07:51.379Z,16.37
2018-05-31T21:08:53.925Z,17.42
2018-05-31T21:09:56.459Z,18.48
2018-05-31T21:10:59.015Z,18.12
2018-05-31T21:12:01.597Z,18.02
2018-05-31T21:13:04.096Z,19.55
2018-05-31T21:14:06.603Z,19.30
2018-05-31T21:15:09.181Z,18.95
2018-05-31T21:16:11.710Z,20.23
2018-05-31T21:17:14.240Z,20.75
2018-05-31T21:18:16.752Z,20.98
2018-05-31T21:19:19.270Z,21.80
2018-05-31T21:20:22.547Z,21.77
2018-05-31T21:21:25.836Z,22.50
2018-05-31T21:22:28.334Z,23.92
2018-05-31T21:23:30.834Z,23.73
2018-05-31T21:24:34.080Z,22.33
2018-05-31T21:25:37.374Z,24.58
2018-05-31T21:26:39.872Z,24.17
2018-05-31T21:27:42.375Z,26.25
2018-05-31T21:28:44.859Z,24.67
2018-05-31T21:29:47.354Z,26.87
2018-05-31T21:30:50.653Z,25.45
2018-05-31T21:31:53.159Z,23.58
2018-05-31T21:32:55.635Z,25.60
2018-05-31T21:33:58.141Z,24.40
2018-05-31T21:35:00.639Z,26.30
2018-05-31T21:36:03.165Z,26.17
2018-05-31T21:37:05.687Z,27.73
2018-05-31T21:38:08.202Z,25.55
2018-05-31T21:39:10.729Z,26.45
2018-05-31T21:40:13.241Z,25.40
2018-05-31T21:41:15.744Z,26.00
2018-05-31T21:42:19.012Z,27.15
2018-05-31T21:43:21.530Z,19.73
2018-05-31T21:44:24.046Z,25.95
2018-05-31T21:45:26.562Z,27.55
2018-05-31T21:46:29.084Z,22.75
2018-05-31T21:47:31.608Z,26.58
2018-05-31T21:48:34.114Z,28.30
2018-05-31T21:49:36.628Z,26.42
2018-05-31T21:50:39.890Z,25.35
2018-05-31T21:51:42.383Z,21.92
2018-05-31T21:52:45.760Z,23.75
2018-05-31T21:53:48.237Z,27.23
2018-05-31T21:54:50.712Z,25.45
2018-05-31T21:55:53.973Z,27.83
2018-05-31T21:56:56.481Z,24.23
2018-05-31T21:57:59.050Z,24.67
2018-05-31T21:59:01.502Z,24.98
2018-05-31T22:00:04.045Z,26.17
2018-05-31T22:01:07.136Z,30.40
2018-05-31T22:02:09.653Z,25.67
2018-05-31T22:03:12.142Z,29.33
2018-05-31T22:04:14.650Z,28.87
2018-05-31T22:05:17.148Z,28.85
2018-05-31T22:06:19.648Z,26.83
2018-05-31T22:07:22.307Z,26.98
2018-05-31T22:08:25.578Z,26.23
2018-05-31T22:09:28.162Z,28.60
2018-05-31T22:10:30.663Z,21.35
2018-05-31T22:11:33.164Z,27.60
2018-05-31T22:12:35.661Z,29.52
2018-05-31T22:13:38.169Z,29.73
2018-05-31T22:14:41.428Z,25.50
2018-05-31T22:15:43.913Z,31.40
2018-05-31T22:16:47.193Z,30.00
2018-05-31T22:17:49.715Z,32.58
2018-05-31T22:18:52.274Z,30.50
2018-05-31T22:19:54.787Z,32.17
2018-05-31T22:20:57.293Z,30.10
2018-05-31T22:21:59.814Z,32.05
2018-05-31T22:23:02.311Z,31.15
2018-05-31T22:24:04.846Z,31.48
2018-05-31T22:25:07.336Z,32.13
2018-05-31T22:26:09.846Z,26.85
2018-05-31T22:27:13.111Z,34.17
2018-05-31T22:28:15.621Z,35.15
2018-05-31T22:29:18.132Z,33.15
2018-05-31T22:30:20.662Z,35.53
2018-05-31T22:31:23.158Z,30.12
2018-05-31T22:32:25.651Z,19.85
2018-05-31T22:33:28.149Z,15.10
2018-05-31T22:34:30.658Z,31.15
2018-05-31T22:35:33.148Z,29.50
2018-05-31T22:36:35.650Z,29.45
2018-05-31T22:37:38.136Z,29.37
2018-05-31T22:38:40.658Z,31.67
2018-05-31T22:39:43.735Z,33.60
2018-05-31T22:40:47.316Z,33.38
2018-05-31T22:41:49.802Z,34.42
2018-05-31T22:42:52.294Z,32.78
2018-05-31T22:43:54.823Z,33.83
2018-05-31T22:44:57.296Z,35.72
2018-05-31T22:45:59.886Z,36.40
2018-05-31T22:47:02.335Z,37.88
2018-05-31T22:48:05.828Z,37.65
2018-05-31T22:49:08.300Z,39.22
2018-05-31T22:50:10.809Z,39.78
2018-05-31T22:51:13.330Z,40.85
2018-05-31T22:52:15.813Z,38.40
2018-05-31T22:53:18.301Z,39.35
2018-05-31T22:54:20.820Z,40.15
2018-05-31T22:55:24.085Z,37.13
2018-05-31T22:56:26.590Z,40.50
2018-05-31T22:57:29.842Z,39.78
2018-05-31T22:58:32.323Z,34.90
2018-05-31T22:59:34.812Z,38.33
2018-05-31T23:00:37.311Z,27.95
2018-05-31T23:01:39.862Z,38.90
2018-05-31T23:02:43.113Z,36.22
2018-05-31T23:03:45.598Z,39.60
2018-05-31T23:04:48.081Z,42.53
2018-05-31T23:05:50.590Z,42.03
2018-05-31T23:06:53.090Z,42.47
2018-05-31T23:07:55.572Z,38.17
2018-05-31T23:08:58.055Z,44.80
2018-05-31T23:10:00.572Z,42.00
2018-05-31T23:11:03.072Z,41.20
2018-05-31T23:12:05.561Z,37.75
2018-05-31T23:13:08.086Z,36.92
2018-05-31T23:14:10.644Z,40.28
2018-05-31T23:15:13.133Z,43.78
2018-05-31T23:16:15.605Z,41.28
2018-05-31T23:17:18.208Z,24.80
2018-05-31T23:18:20.680Z,42.50
2018-05-31T23:19:23.173Z,40.80
2018-05-31T23:20:26.434Z,42.58
2018-05-31T23:21:28.934Z,42.35
2018-05-31T23:22:31.438Z,42.55
2018-05-31T23:23:33.909Z,34.90
2018-05-31T23:24:36.398Z,42.40
2018-05-31T23:25:38.889Z,44.40
2018-05-31T23:26:41.378Z,44.70
2018-05-31T23:27:43.903Z,42.97
2018-05-31T23:28:46.394Z,43.58
2018-05-31T23:29:48.876Z,43.55
2018-05-31T23:30:51.376Z,40.12
2018-05-31T23:31:54.630Z,47.13
2018-05-31T23:32:57.126Z,47.13
2018-05-31T23:34:00.438Z,45.35
2018-05-31T23:35:02.929Z,43.75
2018-05-31T23:36:05.398Z,48.22
2018-05-31T23:37:07.875Z,48.35
2018-05-31T23:38:10.378Z,47.42
2018-05-31T23:39:12.886Z,42.83
2018-05-31T23:40:15.372Z,45.85
2018-05-31T23:41:17.850Z,44.53
2018-05-31T23:42:20.341Z,46.55
2018-05-31T23:43:22.843Z,46.88
2018-05-31T23:44:26.114Z,38.38
2018-05-31T23:45:28.617Z,43.80
2018-05-31T23:46:31.868Z,43.25
2018-05-31T23:47:34.352Z,43.00
2018-05-31T23:48:36.850Z,44.00
2018-05-31T23:49:40.099Z,46.13
2018-05-31T23:50:42.609Z,45.22
2018-05-31T23:51:45.854Z,44.63
2018-05-31T23:52:48.334Z,48.78
2018-05-31T23:53:50.832Z,30.90
2018-05-31T23:54:54.083Z,48.55
2018-05-31T23:55:56.562Z,45.47
2018-05-31T23:56:59.043Z,33.33
2018-05-31T23:58:01.523Z,45.40
2018-05-31T23:59:04.800Z,42.88
